createdAt,value
2022-08-17T00:00:42.779Z,67.76
2022-08-17T00:03:17.234Z,67.67
2022-08-17T00:05:53.207Z,68.05
2022-08-17T00:08:27.536Z,68.41
2022-08-17T00:10:57.148Z,68.53
2022-08-17T00:13:32.683Z,68.42
2022-08-17T00:16:07.283Z,68.44
2022-08-17T00:18:57.427Z,68.57
2022-08-17T00:21:36.080Z,68.48
2022-08-17T00:24:19.729Z,68.64
2022-08-17T00:26:48.091Z,68.93
2022-08-17T00:29:19.606Z,69.08
2022-08-17T00:31:50.445Z,69.17
2022-08-17T00:34:25.295Z,68.72
2022-08-17T00:36:56.249Z,68.83
2022-08-17T00:39:24.557Z,68.94
2022-08-17T00:41:52.809Z,69.11
2022-08-17T00:44:21.081Z,69.51
2022-08-17T00:47:01.499Z,69.85
2022-08-17T00:49:31.312Z,69.79
2022-08-17T00:52:11.897Z,70.11
2022-08-17T00:54:46.176Z,70.63
2022-08-17T00:57:23.615Z,71.56
2022-08-17T01:00:02.284Z,73.13
2022-08-17T01:02:42.680Z,73.60
2022-08-17T01:05:19.366Z,75.31
2022-08-17T01:07:51.455Z,76.20
2022-08-17T01:10:58.730Z,77.04
2022-08-17T01:13:17.972Z,78.57
2022-08-17T01:15:53.569Z,78.21
2022-08-17T01:18:27.154Z,77.24
2022-08-17T01:21:00.381Z,76.03
2022-08-17T01:23:33.567Z,74.88
2022-08-17T01:26:03.481Z,74.16
2022-08-17T01:28:53.965Z,74.06
2022-08-17T01:31:26.883Z,74.86
2022-08-17T01:33:57.606Z,74.96
2022-08-17T01:36:25.798Z,76.45
2022-08-17T01:38:55.577Z,77.31
2022-08-17T01:41:25.746Z,78.65
2022-08-17T01:44:03.688Z,79.85
2022-08-17T01:46:36.428Z,81.20
2022-08-17T01:49:08.146Z,82.95
2022-08-17T01:51:40.367Z,83.59
2022-08-17T01:54:15.181Z,84.01
2022-08-17T01:56:49.527Z,84.33
2022-08-17T01:59:21.093Z,84.12
2022-08-17T02:01:50.385Z,84.37
2022-08-17T02:04:18.867Z,84.12
2022-08-17T02:06:54.007Z,84.21
2022-08-17T02:09:25.983Z,83.70
2022-08-17T02:12:00.131Z,84.01
2022-08-17T02:14:50.296Z,84.40
2022-08-17T02:17:18.812Z,84.10
2022-08-17T02:19:47.081Z,83.70
2022-08-17T02:22:15.646Z,83.86
2022-08-17T02:25:00.386Z,83.77
2022-08-17T02:27:30.786Z,83.16
2022-08-17T02:29:59.063Z,83.15
2022-08-17T02:32:28.727Z,82.91
2022-08-17T02:34:57.960Z,83.21
2022-08-17T02:37:26.868Z,82.88
2022-08-17T02:39:58.505Z,82.73
2022-08-17T02:42:35.331Z,82.70
2022-08-17T02:45:11.107Z,83.39
2022-08-17T02:47:40.235Z,83.55
2022-08-17T02:50:12.502Z,83.92
2022-08-17T02:52:44.196Z,83.79
2022-08-17T02:55:21.596Z,84.01
2022-08-17T02:57:51.938Z,84.33
2022-08-17T03:00:24.317Z,84.07
2022-08-17T03:02:54.648Z,83.90
2022-08-17T03:05:26.036Z,83.93
2022-08-17T03:07:54.365Z,83.59
2022-08-17T03:10:24.626Z,83.41
2022-08-17T03:12:54.575Z,83.14
2022-08-17T03:15:26.242Z,83.09
2022-08-17T03:17:56.703Z,82.54
2022-08-17T03:20:27.344Z,82.43
2022-08-17T03:23:01.841Z,82.12
2022-08-17T03:25:37.212Z,81.68
2022-08-17T03:28:11.856Z,81.77
2022-08-17T03:30:40.989Z,81.73
2022-08-17T03:33:11.149Z,81.82
2022-08-17T03:35:44.056Z,81.78
2022-08-17T03:38:17.765Z,81.46
2022-08-17T03:40:56.412Z,81.73
2022-08-17T03:43:29.930Z,81.23
2022-08-17T03:46:27.704Z,81.02
2022-08-17T03:49:15.034Z,80.41
2022-08-17T03:52:01.047Z,80.03
2022-08-17T03:54:47.120Z,80.09
2022-08-17T03:57:19.131Z,80.14
2022-08-17T03:59:48.929Z,80.00
2022-08-17T04:02:23.408Z,79.59
2022-08-17T04:04:52.641Z,79.72
2022-08-17T04:07:22.636Z,79.93
2022-08-17T04:09:52.718Z,80.19
2022-08-17T04:12:25.089Z,80.49
2022-08-17T04:14:55.379Z,80.73
2022-08-17T04:17:26.363Z,81.01
2022-08-17T04:19:56.050Z,81.14
2022-08-17T04:22:32.869Z,81.05
2022-08-17T04:25:09.293Z,80.46
2022-08-17T04:27:38.904Z,80.22
2022-08-17T04:30:08.811Z,80.16
2022-08-17T04:32:59.336Z,79.78
2022-08-17T04:35:38.606Z,79.76
2022-08-17T04:38:08.546Z,80.20
2022-08-17T04:40:55.095Z,80.50
2022-08-17T04:43:27.618Z,81.20
2022-08-17T04:45:59.034Z,80.94
2022-08-17T04:48:36.042Z,80.80
2022-08-17T04:51:10.614Z,80.68
2022-08-17T04:53:40.935Z,81.29
2022-08-17T04:56:16.219Z,81.14
2022-08-17T04:58:50.334Z,81.40
2022-08-17T05:01:23.728Z,81.46
2022-08-17T05:03:53.617Z,81.79
2022-08-17T05:06:22.391Z,81.90
2022-08-17T05:08:50.733Z,81.98
2022-08-17T05:11:19.144Z,81.81
2022-08-17T05:13:50.230Z,82.04
2022-08-17T05:16:19.569Z,81.92
2022-08-17T05:18:48.287Z,81.63
2022-08-17T05:21:17.182Z,81.69
2022-08-17T05:23:53.895Z,81.61
2022-08-17T05:26:26.029Z,81.92
2022-08-17T05:29:00.475Z,81.82
2022-08-17T05:31:31.643Z,81.74
2022-08-17T05:34:00.354Z,81.71
2022-08-17T05:36:43.660Z,81.33
2022-08-17T05:39:16.600Z,81.56
2022-08-17T05:41:49.120Z,83.05
2022-08-17T05:44:18.919Z,82.98
2022-08-17T05:46:51.687Z,83.23
2022-08-17T05:49:28.278Z,83.27
2022-08-17T05:52:20.879Z,83.30
2022-08-17T05:55:04.852Z,83.26
2022-08-17T05:58:01.011Z,83.02
2022-08-17T06:00:42.073Z,82.89
2022-08-17T06:03:41.770Z,82.44
2022-08-17T06:06:32.946Z,81.91
2022-08-17T06:09:17.159Z,81.93
2022-08-17T06:11:54.548Z,81.44
2022-08-17T06:14:51.623Z,81.58
2022-08-17T06:17:25.082Z,81.36
2022-08-17T06:19:59.699Z,81.26
2022-08-17T06:22:39.228Z,81.75
2022-08-17T06:25:15.667Z,82.83
2022-08-17T06:27:48.735Z,82.80
2022-08-17T06:30:25.764Z,82.81
2022-08-17T06:33:00.184Z,82.70
2022-08-17T06:35:39.878Z,82.64
2022-08-17T06:38:37.746Z,82.13
2022-08-17T06:41:16.439Z,81.87
2022-08-17T06:44:00.703Z,81.49
2022-08-17T06:46:36.637Z,81.37
2022-08-17T06:49:21.882Z,81.18
2022-08-17T06:51:57.639Z,80.50
2022-08-17T06:54:35.741Z,80.06
2022-08-17T06:57:14.558Z,80.28
2022-08-17T06:59:55.414Z,79.97
2022-08-17T07:02:52.487Z,79.94
2022-08-17T07:05:26.080Z,79.84
2022-08-17T07:08:02.602Z,79.17
2022-08-17T07:10:39.546Z,79.07
2022-08-17T07:13:33.119Z,79.45
2022-08-17T07:16:13.162Z,79.65
2022-08-17T07:18:41.947Z,79.90
2022-08-17T07:21:38.006Z,79.67
2022-08-17T07:24:26.330Z,79.77
2022-08-17T07:27:10.655Z,79.87
2022-08-17T07:29:44.966Z,79.97
2022-08-17T07:32:17.906Z,79.89
2022-08-17T07:35:16.504Z,80.16
2022-08-17T07:37:50.866Z,80.54
2022-08-17T07:40:32.091Z,80.91
2022-08-17T07:43:22.350Z,81.34
2022-08-17T07:46:34.692Z,81.38
2022-08-17T07:49:24.691Z,81.52
2022-08-17T07:52:48.339Z,81.71
2022-08-17T07:54:54.513Z,82.27
2022-08-17T07:57:35.616Z,82.43
2022-08-17T08:00:30.834Z,82.38
2022-08-17T08:03:23.731Z,83.05
2022-08-17T08:06:01.199Z,82.83
2022-08-17T08:08:36.752Z,83.00
2022-08-17T08:11:12.973Z,83.53
2022-08-17T08:13:45.523Z,82.99
2022-08-17T08:16:29.258Z,83.59
2022-08-17T08:19:00.731Z,83.88
2022-08-17T08:21:41.719Z,83.37
2022-08-17T08:24:55.309Z,83.43
2022-08-17T08:27:38.895Z,83.38
2022-08-17T08:30:11.324Z,83.27
2022-08-17T08:33:08.456Z,82.62
2022-08-17T08:35:45.379Z,81.57
2022-08-17T08:38:31.013Z,81.21
2022-08-17T08:41:26.491Z,80.08
2022-08-17T08:44:10.477Z,81.20
2022-08-17T08:46:52.901Z,81.53
2022-08-17T08:50:05.018Z,82.77
2022-08-17T08:53:05.386Z,83.98
2022-08-17T08:55:48.873Z,84.63
2022-08-17T08:58:41.028Z,85.72
2022-08-17T09:01:25.617Z,85.86
2022-08-17T09:04:25.844Z,86.31
2022-08-17T09:07:12.666Z,86.34
2022-08-17T09:09:55.137Z,86.63
2022-08-17T09:12:38.064Z,86.77
2022-08-17T09:15:13.269Z,86.55
2022-08-17T09:18:21.362Z,86.47
2022-08-17T09:20:52.633Z,86.55
2022-08-17T09:23:32.681Z,86.46
2022-08-17T09:26:10.344Z,86.16
2022-08-17T09:28:41.451Z,86.34
2022-08-17T09:31:14.050Z,85.87
2022-08-17T09:33:48.267Z,85.73
2022-08-17T09:36:21.983Z,85.68
2022-08-17T09:38:59.118Z,85.51
2022-08-17T09:41:49.162Z,84.48
2022-08-17T09:44:25.820Z,84.92
2022-08-17T09:47:00.242Z,85.31
2022-08-17T09:49:34.992Z,85.16
2022-08-17T09:52:11.160Z,85.04
2022-08-17T09:54:41.823Z,85.38
2022-08-17T09:57:32.685Z,85.16
2022-08-17T10:00:24.977Z,84.61
2022-08-17T10:03:25.621Z,85.03
2022-08-17T10:06:02.662Z,84.67
2022-08-17T10:08:42.913Z,84.06
2022-08-17T10:11:50.376Z,84.23
2022-08-17T10:14:37.747Z,83.63
2022-08-17T10:17:20.683Z,83.25
2022-08-17T10:19:59.665Z,82.48
2022-08-17T10:22:54.791Z,82.04
2022-08-17T10:25:56.736Z,81.30
2022-08-17T10:28:31.271Z,80.00
2022-08-17T10:31:33.742Z,79.63
2022-08-17T10:34:08.534Z,79.53
2022-08-17T10:36:48.279Z,79.15
2022-08-17T10:39:31.608Z,78.76
2022-08-17T10:42:06.348Z,78.30
2022-08-17T10:44:48.341Z,77.81
2022-08-17T10:47:19.622Z,77.68
2022-08-17T10:49:54.306Z,77.76
2022-08-17T10:52:49.948Z,77.97
2022-08-17T10:55:21.387Z,78.38
2022-08-17T10:57:51.431Z,78.89
2022-08-17T11:01:12.661Z,79.48
2022-08-17T11:03:54.873Z,79.22
2022-08-17T11:06:34.436Z,78.85
2022-08-17T11:09:36.496Z,78.69
2022-08-17T11:12:23.947Z,79.00
2022-08-17T11:15:13.950Z,78.87
2022-08-17T11:18:19.762Z,78.71
2022-08-17T11:21:43.665Z,78.67
2022-08-17T11:24:19.187Z,78.96
2022-08-17T11:27:05.114Z,79.03
2022-08-17T11:29:39.955Z,78.92
2022-08-17T11:32:14.111Z,78.58
2022-08-17T11:34:44.866Z,78.59
2022-08-17T11:37:40.665Z,78.59
2022-08-17T11:40:46.408Z,78.55
2022-08-17T11:43:57.454Z,78.68
2022-08-17T11:46:56.852Z,78.19
2022-08-17T11:50:01.170Z,78.16
2022-08-17T11:52:45.008Z,78.80
2022-08-17T11:56:03.226Z,78.92
2022-08-17T11:58:41.366Z,79.91
2022-08-17T12:01:13.684Z,79.67
2022-08-17T12:03:54.440Z,80.24
2022-08-17T12:06:47.008Z,80.30
2022-08-17T12:09:20.286Z,80.67
2022-08-17T12:12:12.116Z,80.47
2022-08-17T12:15:09.475Z,80.74
2022-08-17T12:17:41.272Z,81.10
2022-08-17T12:20:19.329Z,81.38
2022-08-17T12:22:56.438Z,81.36
2022-08-17T12:25:34.943Z,81.29
2022-08-17T12:28:06.492Z,81.81
2022-08-17T12:30:37.851Z,81.91
2022-08-17T12:33:25.679Z,82.00
2022-08-17T12:36:04.618Z,81.71
2022-08-17T12:38:36.138Z,81.85
2022-08-17T12:41:22.422Z,81.89
2022-08-17T12:44:01.607Z,81.44
2022-08-17T12:46:34.812Z,81.53
2022-08-17T12:49:15.193Z,81.48
2022-08-17T12:51:47.343Z,81.42
2022-08-17T12:54:40.563Z,81.61
2022-08-17T12:57:15.148Z,81.40
2022-08-17T12:59:48.931Z,82.17
2022-08-17T13:02:42.727Z,82.33
2022-08-17T13:05:23.513Z,81.96
2022-08-17T13:07:54.596Z,82.62
2022-08-17T13:10:32.990Z,82.77
2022-08-17T13:13:05.869Z,82.83
2022-08-17T13:15:44.672Z,83.07
2022-08-17T13:18:40.504Z,83.49
2022-08-17T13:21:19.137Z,83.54
2022-08-17T13:23:59.864Z,83.54
2022-08-17T13:26:32.909Z,83.76
2022-08-17T13:29:02.754Z,83.83
2022-08-17T13:31:44.034Z,83.98
2022-08-17T13:34:48.256Z,83.72
2022-08-17T13:37:32.984Z,83.15
2022-08-17T13:40:29.097Z,83.13
2022-08-17T13:42:58.354Z,83.47
2022-08-17T13:45:46.303Z,82.73
2022-08-17T13:48:32.030Z,81.75
2022-08-17T13:51:33.941Z,81.62
2022-08-17T13:54:18.981Z,81.40
2022-08-17T13:56:59.566Z,81.16
2022-08-17T13:59:53.553Z,80.81
2022-08-17T14:02:26.091Z,81.13
2022-08-17T14:05:00.466Z,80.73
2022-08-17T14:07:35.022Z,80.87
2022-08-17T14:10:12.276Z,81.09
2022-08-17T14:12:44.140Z,80.63
2022-08-17T14:15:16.680Z,80.17
2022-08-17T14:17:45.089Z,79.57
2022-08-17T14:20:15.098Z,79.65
2022-08-17T14:22:48.270Z,79.13
2022-08-17T14:25:21.763Z,78.44
2022-08-17T14:27:53.972Z,78.22
2022-08-17T14:30:26.751Z,78.27
2022-08-17T14:32:58.054Z,78.62
2022-08-17T14:35:27.920Z,79.14
2022-08-17T14:37:56.690Z,78.69
2022-08-17T14:40:26.279Z,78.71
2022-08-17T14:42:57.900Z,78.36
2022-08-17T14:45:31.838Z,78.08
2022-08-17T14:48:05.702Z,77.86
2022-08-17T14:50:35.583Z,78.31
2022-08-17T14:53:05.564Z,78.15
2022-08-17T14:55:34.599Z,77.56
2022-08-17T14:58:04.973Z,77.87
2022-08-17T15:00:33.465Z,77.16
2022-08-17T15:03:02.877Z,77.44
2022-08-17T15:05:34.516Z,77.77
2022-08-17T15:08:05.579Z,77.56
2022-08-17T15:10:34.661Z,77.18
2022-08-17T15:13:04.795Z,76.63
2022-08-17T15:15:33.080Z,76.47
2022-08-17T15:18:02.428Z,76.62
2022-08-17T15:20:31.284Z,76.38
2022-08-17T15:23:00.164Z,76.79
2022-08-17T15:25:31.672Z,77.21
2022-08-17T15:28:01.043Z,77.51
2022-08-17T15:30:32.355Z,76.21
2022-08-17T15:33:01.830Z,75.64
2022-08-17T15:35:34.676Z,75.88
2022-08-17T15:38:11.588Z,75.80
2022-08-17T15:40:44.094Z,75.35
2022-08-17T15:43:14.950Z,75.46
2022-08-17T15:45:58.807Z,75.47
2022-08-17T15:48:41.362Z,75.43
2022-08-17T15:51:12.820Z,75.71
2022-08-17T15:53:43.486Z,75.13
2022-08-17T15:56:13.621Z,73.67
2022-08-17T15:58:43.678Z,73.43
2022-08-17T16:01:42.270Z,73.58
2022-08-17T16:04:26.889Z,73.68
2022-08-17T16:06:53.313Z,73.25
2022-08-17T16:09:21.636Z,73.38
2022-08-17T16:11:52.005Z,73.10
2022-08-17T16:14:24.109Z,73.08
2022-08-17T16:16:54.055Z,73.26
2022-08-17T16:19:22.477Z,73.41
2022-08-17T16:21:50.773Z,73.02
2022-08-17T16:24:19.105Z,72.98
2022-08-17T16:26:47.445Z,72.97
2022-08-17T16:29:15.775Z,72.98
2022-08-17T16:31:44.035Z,73.13
2022-08-17T16:34:17.603Z,73.07
2022-08-17T16:36:55.198Z,72.62
2022-08-17T16:39:29.643Z,72.26
2022-08-17T16:41:58.568Z,72.20
2022-08-17T16:44:28.962Z,72.56
2022-08-17T16:46:57.411Z,72.03
2022-08-17T16:49:36.620Z,72.03
2022-08-17T16:52:11.091Z,72.22
2022-08-17T16:54:43.645Z,72.08
2022-08-17T16:57:12.964Z,72.52
2022-08-17T16:59:43.949Z,72.49
2022-08-17T17:02:16.916Z,72.56
2022-08-17T17:04:53.603Z,73.06
2022-08-17T17:07:52.326Z,72.63
2022-08-17T17:10:24.849Z,71.99
2022-08-17T17:13:02.208Z,72.26
2022-08-17T17:15:51.630Z,72.05
2022-08-17T17:18:27.236Z,72.12
2022-08-17T17:20:58.634Z,72.07
2022-08-17T17:23:38.719Z,71.85
2022-08-17T17:26:24.722Z,71.88
2022-08-17T17:29:10.831Z,72.47
2022-08-17T17:31:49.179Z,73.40
2022-08-17T17:34:18.476Z,73.72
2022-08-17T17:36:53.367Z,74.49
2022-08-17T17:39:31.865Z,75.31
2022-08-17T17:42:07.551Z,75.71
2022-08-17T17:44:42.212Z,75.57
2022-08-17T17:47:11.511Z,75.75
2022-08-17T17:49:43.839Z,75.75
2022-08-17T17:52:26.102Z,75.48
2022-08-17T17:55:06.747Z,75.66
2022-08-17T17:57:46.867Z,76.71
2022-08-17T18:00:23.438Z,76.54
2022-08-17T18:03:09.451Z,77.02
2022-08-17T18:05:56.298Z,77.40
2022-08-17T18:08:42.728Z,77.17
2022-08-17T18:11:43.694Z,77.30
2022-08-17T18:14:29.165Z,77.67
2022-08-17T18:17:00.377Z,77.82
2022-08-17T18:19:31.532Z,77.52
2022-08-17T18:22:08.321Z,77.14
2022-08-17T18:24:47.077Z,76.76
2022-08-17T18:27:26.807Z,77.24
2022-08-17T18:29:57.428Z,76.89
2022-08-17T18:32:38.021Z,76.85
2022-08-17T18:35:39.024Z,77.07
2022-08-17T18:38:23.173Z,76.84
2022-08-17T18:41:08.395Z,76.98
2022-08-17T18:43:53.002Z,76.34
2022-08-17T18:46:30.205Z,76.49
2022-08-17T18:49:02.133Z,76.75
2022-08-17T18:51:42.269Z,76.55
2022-08-17T18:54:19.609Z,76.64
2022-08-17T18:56:55.611Z,76.61
2022-08-17T18:59:34.844Z,76.24
2022-08-17T19:02:41.759Z,75.90
2022-08-17T19:05:27.976Z,75.95
2022-08-17T19:08:16.130Z,76.08
2022-08-17T19:10:48.521Z,75.82
2022-08-17T19:13:24.380Z,75.90
2022-08-17T19:16:11.727Z,75.61
2022-08-17T19:18:48.991Z,75.16
2022-08-17T19:21:21.874Z,75.17
2022-08-17T19:23:58.648Z,74.96
2022-08-17T19:26:53.337Z,75.10
2022-08-17T19:29:27.987Z,74.91
2022-08-17T19:31:58.724Z,75.09
2022-08-17T19:34:34.499Z,75.03
2022-08-17T19:37:10.844Z,74.63
2022-08-17T19:39:48.949Z,74.57
2022-08-17T19:42:32.930Z,74.31
2022-08-17T19:45:15.904Z,74.10
2022-08-17T19:47:55.944Z,74.51
2022-08-17T19:50:39.060Z,74.32
2022-08-17T19:53:30.120Z,74.27
2022-08-17T19:56:15.467Z,74.39
2022-08-17T19:58:55.374Z,74.35
2022-08-17T20:01:35.740Z,74.11
2022-08-17T20:04:11.834Z,74.21
2022-08-17T20:06:44.308Z,73.98
2022-08-17T20:09:21.752Z,74.02
2022-08-17T20:11:57.367Z,73.70
2022-08-17T20:14:34.241Z,73.80
2022-08-17T20:17:05.800Z,73.85
2022-08-17T20:19:48.951Z,73.79
2022-08-17T20:22:24.316Z,73.45
2022-08-17T20:25:01.234Z,73.84
2022-08-17T20:27:33.055Z,73.87
2022-08-17T20:30:10.790Z,74.17
2022-08-17T20:32:55.204Z,74.19
2022-08-17T20:35:27.461Z,74.49
2022-08-17T20:38:02.079Z,74.37
2022-08-17T20:40:36.675Z,74.23
2022-08-17T20:43:50.933Z,74.21
2022-08-17T20:46:53.177Z,74.10
2022-08-17T20:49:39.395Z,74.68
2022-08-17T20:52:13.481Z,75.11
2022-08-17T20:54:54.671Z,74.81
2022-08-17T20:57:48.606Z,74.79
2022-08-17T21:00:45.550Z,74.37
2022-08-17T21:03:51.842Z,75.19
2022-08-17T21:06:26.937Z,75.75
2022-08-17T21:09:19.289Z,76.06
2022-08-17T21:12:04.062Z,76.78
2022-08-17T21:14:58.118Z,77.05
2022-08-17T21:17:40.406Z,77.89
2022-08-17T21:20:32.132Z,77.69
2022-08-17T21:23:43.097Z,77.65
2022-08-17T21:26:30.685Z,77.60
2022-08-17T21:29:29.632Z,77.76
2022-08-17T21:32:23.683Z,77.98
2022-08-17T21:35:49.089Z,77.87
2022-08-17T21:38:21.559Z,77.84
2022-08-17T21:40:53.960Z,78.03
2022-08-17T21:43:27.738Z,77.92
2022-08-17T21:46:01.836Z,77.81
2022-08-17T21:48:33.231Z,77.81
2022-08-17T21:51:10.376Z,77.93
2022-08-17T21:53:49.180Z,77.83
2022-08-17T21:56:27.574Z,77.54
2022-08-17T21:59:01.031Z,77.47
2022-08-17T22:01:34.499Z,77.20
2022-08-17T22:04:21.878Z,76.91
2022-08-17T22:06:57.134Z,76.94
2022-08-17T22:09:29.985Z,77.05
2022-08-17T22:12:07.626Z,77.07
2022-08-17T22:14:53.273Z,77.04
2022-08-17T22:17:25.306Z,76.92
2022-08-17T22:19:56.873Z,76.49
2022-08-17T22:22:34.013Z,76.69
2022-08-17T22:25:08.553Z,76.86
2022-08-17T22:27:54.388Z,76.71
2022-08-17T22:30:37.134Z,76.49
2022-08-17T22:33:42.733Z,76.73
2022-08-17T22:36:24.658Z,76.63
2022-08-17T22:38:56.448Z,76.60
2022-08-17T22:41:37.344Z,76.55
2022-08-17T22:44:24.318Z,76.60
2022-08-17T22:47:00.396Z,76.63
2022-08-17T22:49:33.112Z,76.50
2022-08-17T22:52:29.195Z,76.63
2022-08-17T22:55:29.984Z,77.23
2022-08-17T22:58:15.880Z,77.98
2022-08-17T23:00:48.550Z,78.40
2022-08-17T23:03:24.479Z,78.61
2022-08-17T23:06:09.509Z,78.81
2022-08-17T23:08:52.360Z,79.05
2022-08-17T23:11:23.737Z,79.03
2022-08-17T23:14:16.783Z,78.56
2022-08-17T23:16:47.955Z,78.11
2022-08-17T23:19:19.414Z,77.92
2022-08-17T23:21:49.200Z,78.00
2022-08-17T23:24:23.852Z,78.29
2022-08-17T23:26:52.705Z,78.35
2022-08-17T23:29:21.496Z,78.19
2022-08-17T23:31:51.507Z,77.98
2022-08-17T23:34:20.422Z,78.07
2022-08-17T23:36:56.251Z,79.00
2022-08-17T23:39:28.156Z,79.67
2022-08-17T23:41:59.892Z,79.79
2022-08-17T23:44:30.955Z,80.33
2022-08-17T23:47:02.246Z,80.18
2022-08-17T23:49:31.555Z,79.81
2022-08-17T23:52:02.461Z,79.97
2022-08-17T23:54:43.672Z,80.09
2022-08-17T23:57:14.235Z,80.30
2022-08-17T23:59:43.867Z,79.87
